createdAt,value
2018-09-19T00:01:14.226Z,4.97
2018-09-19T00:03:46.523Z,5.47
2018-09-19T00:06:18.732Z,5.23
2018-09-19T00:08:53.429Z,5.30
2018-09-19T00:11:28.325Z,6.33
2018-09-19T00:14:00.837Z,5.60
2018-09-19T00:16:33.817Z,5.20
2018-09-19T00:19:06.240Z,6.47
2018-09-19T00:21:40.157Z,5.43
2018-09-19T00:24:13.322Z,5.70
2018-09-19T00:26:45.651Z,6.60
2018-09-19T00:29:18.611Z,6.87
2018-09-19T00:31:51.451Z,7.07
2018-09-19T00:34:24.015Z,6.73
2018-09-19T00:36:57.231Z,6.43
2018-09-19T00:39:29.450Z,5.77
2018-09-19T00:42:01.940Z,6.43
2018-09-19T00:44:34.782Z,7.63
2018-09-19T00:47:07.430Z,6.60
2018-09-19T00:49:40.398Z,7.83
2018-09-19T00:52:12.837Z,8.53
2018-09-19T00:54:45.413Z,9.50
2018-09-19T00:57:17.987Z,8.57
2018-09-19T00:59:50.637Z,7.67
2018-09-19T01:02:24.085Z,9.77
2018-09-19T01:04:56.589Z,9.30
2018-09-19T01:07:29.518Z,7.80
2018-09-19T01:10:02.180Z,8.13
2018-09-19T01:15:55.742Z,8.13
2018-09-19T01:18:29.867Z,7.03
2018-09-19T01:21:02.258Z,7.53
2018-09-19T01:23:34.918Z,7.97
2018-09-19T01:26:08.189Z,7.83
2018-09-19T01:28:41.156Z,6.80
2018-09-19T01:31:13.973Z,7.67
2018-09-19T01:33:47.232Z,6.80
2018-09-19T01:36:19.969Z,7.00
2018-09-19T01:38:52.749Z,6.17
2018-09-19T01:41:25.669Z,7.63
2018-09-19T01:43:59.257Z,7.50
2018-09-19T01:46:32.323Z,7.63
2018-09-19T01:49:04.681Z,7.57
2018-09-19T01:51:36.851Z,6.80
2018-09-19T01:54:09.273Z,7.57
2018-09-19T01:56:42.252Z,6.80
2018-09-19T01:59:15.041Z,7.20
2018-09-19T02:01:47.761Z,6.37
2018-09-19T02:04:20.721Z,7.93
2018-09-19T02:06:53.551Z,7.73
2018-09-19T02:09:27.317Z,7.00
2018-09-19T02:12:01.068Z,7.00
2018-09-19T02:14:34.111Z,7.23
2018-09-19T02:17:07.181Z,6.73
2018-09-19T02:19:40.155Z,6.40
2018-09-19T02:22:18.082Z,6.63
2018-09-19T02:24:53.739Z,6.60
2018-09-19T02:27:30.329Z,6.53
2018-09-19T02:30:03.934Z,6.90
2018-09-19T02:32:36.739Z,6.03
2018-09-19T02:35:09.329Z,6.57
2018-09-19T02:37:42.185Z,6.97
2018-09-19T02:43:45.823Z,6.50
2018-09-19T02:46:19.094Z,6.53
2018-09-19T02:48:53.755Z,6.27
2018-09-19T02:51:26.878Z,6.33
2018-09-19T02:54:01.603Z,7.23
2018-09-19T02:56:34.964Z,6.73
2018-09-19T02:59:08.580Z,6.97
2018-09-19T03:01:44.115Z,7.40
2018-09-19T03:04:17.804Z,7.13
2018-09-19T03:06:52.837Z,8.63
2018-09-19T03:09:26.459Z,7.70
2018-09-19T03:11:59.927Z,7.67
2018-09-19T03:14:38.369Z,8.67
2018-09-19T03:17:12.987Z,7.93
2018-09-19T03:23:09.793Z,8.17
2018-09-19T03:29:04.247Z,7.07
2018-09-19T03:31:37.088Z,7.77
2018-09-19T03:34:09.671Z,8.40
2018-09-19T03:36:42.372Z,8.90
2018-09-19T03:39:15.015Z,9.53
2018-09-19T03:41:48.045Z,8.83
2018-09-19T03:47:44.516Z,7.83
2018-09-19T03:50:17.737Z,9.23
2018-09-19T03:52:51.074Z,8.53
2018-09-19T03:55:24.345Z,8.97
2018-09-19T03:58:04.184Z,10.10
2018-09-19T04:00:38.459Z,9.60
2018-09-19T04:06:32.883Z,8.03
2018-09-19T04:09:06.710Z,8.57
2018-09-19T04:11:40.690Z,8.93
2018-09-19T04:14:14.275Z,7.73
2018-09-19T04:16:47.822Z,7.87
2018-09-19T04:19:20.835Z,8.07
2018-09-19T04:25:25.119Z,8.00
2018-09-19T04:27:59.370Z,7.70
2018-09-19T04:30:32.574Z,9.33
2018-09-19T04:33:07.357Z,8.43
2018-09-19T04:35:41.184Z,9.00
2018-09-19T04:38:14.156Z,9.10
2018-09-19T04:40:46.935Z,9.20
2018-09-19T04:43:20.237Z,10.10
2018-09-19T04:45:53.239Z,9.70
2018-09-19T04:51:47.766Z,9.50
2018-09-19T04:54:27.063Z,10.33
2018-09-19T04:57:00.780Z,9.90
2018-09-19T04:59:33.479Z,10.53
2018-09-19T05:02:06.772Z,10.83
2018-09-19T05:04:39.905Z,11.03
2018-09-19T05:07:13.175Z,9.17
2018-09-19T05:09:46.628Z,9.77
2018-09-19T05:12:19.784Z,9.00
2018-09-19T05:14:55.047Z,9.20
2018-09-19T05:17:29.027Z,8.10
2018-09-19T05:20:02.098Z,8.33
2018-09-19T05:22:35.825Z,8.60
2018-09-19T05:25:08.955Z,8.90
2018-09-19T05:27:42.564Z,8.33
2018-09-19T05:30:15.564Z,8.30
2018-09-19T05:32:49.398Z,8.97
2018-09-19T05:35:23.370Z,8.87
2018-09-19T05:37:56.190Z,9.67
2018-09-19T05:40:28.929Z,9.37
2018-09-19T05:43:02.065Z,9.70
2018-09-19T05:48:38.721Z,9.33
2018-09-19T05:51:11.974Z,10.03
2018-09-19T05:53:44.775Z,10.23
2018-09-19T05:56:18.601Z,10.07
2018-09-19T05:58:51.714Z,8.90
2018-09-19T06:01:25.261Z,10.93
2018-09-19T06:03:58.150Z,9.80
2018-09-19T06:06:31.592Z,10.13
2018-09-19T06:09:04.739Z,10.17
2018-09-19T06:11:39.348Z,10.40
2018-09-19T06:14:14.156Z,9.87
2018-09-19T06:16:46.946Z,10.70
2018-09-19T06:22:51.496Z,9.73
2018-09-19T06:28:45.359Z,11.53
2018-09-19T06:31:18.437Z,11.90
2018-09-19T06:37:11.596Z,12.63
2018-09-19T06:39:44.138Z,12.47
2018-09-19T06:42:16.607Z,12.53
2018-09-19T06:44:49.159Z,13.00
2018-09-19T06:47:21.712Z,13.00
2018-09-19T06:49:54.223Z,12.73
2018-09-19T06:52:26.855Z,13.00
2018-09-19T06:54:59.645Z,11.63
2018-09-19T06:57:32.470Z,11.60
2018-09-19T07:00:04.623Z,12.23
2018-09-19T07:02:37.647Z,12.73
2018-09-19T07:05:10.925Z,12.30
2018-09-19T07:07:43.481Z,12.20
2018-09-19T07:10:16.519Z,12.23
2018-09-19T07:12:48.703Z,12.47
2018-09-19T07:15:21.300Z,12.13
2018-09-19T07:17:53.552Z,11.50
2018-09-19T07:20:25.825Z,12.67
2018-09-19T07:22:58.121Z,12.30
2018-09-19T07:25:30.271Z,12.07
2018-09-19T07:28:02.894Z,11.37
2018-09-19T07:30:35.303Z,11.40
2018-09-19T07:33:07.675Z,11.80
2018-09-19T07:35:40.058Z,12.53
2018-09-19T07:38:12.793Z,11.77
2018-09-19T07:40:45.131Z,11.87
2018-09-19T07:43:17.527Z,13.00
2018-09-19T07:45:50.244Z,12.33
2018-09-19T07:48:22.572Z,11.97
2018-09-19T07:50:54.730Z,11.43
2018-09-19T07:53:30.955Z,11.73
2018-09-19T07:56:03.514Z,11.70
2018-09-19T07:58:35.919Z,11.87
2018-09-19T08:01:08.319Z,12.43
2018-09-19T08:03:40.955Z,12.50
2018-09-19T08:06:13.539Z,11.60
2018-09-19T08:08:45.950Z,12.30
2018-09-19T08:11:18.358Z,12.73
2018-09-19T08:13:50.650Z,11.07
2018-09-19T08:16:23.042Z,11.73
2018-09-19T08:18:55.650Z,12.30
2018-09-19T08:21:28.129Z,11.90
2018-09-19T08:24:00.744Z,12.67
2018-09-19T08:26:33.064Z,11.93
2018-09-19T08:29:05.157Z,12.63
2018-09-19T08:31:37.512Z,13.20
2018-09-19T08:34:10.690Z,12.40
2018-09-19T08:36:43.157Z,12.30
2018-09-19T08:39:15.825Z,11.97
2018-09-19T08:41:48.181Z,12.53
2018-09-19T08:44:20.695Z,12.83
2018-09-19T08:46:52.841Z,11.30
2018-09-19T08:49:25.149Z,10.50
2018-09-19T08:51:57.404Z,12.63
2018-09-19T08:54:30.458Z,11.40
2018-09-19T08:57:02.988Z,11.90
2018-09-19T08:59:35.388Z,11.97
2018-09-19T09:02:08.148Z,10.57
2018-09-19T09:04:40.457Z,11.10
2018-09-19T09:07:12.875Z,11.73
2018-09-19T09:09:45.480Z,12.07
2018-09-19T09:12:18.663Z,11.43
2018-09-19T09:14:51.136Z,12.10
2018-09-19T09:17:23.279Z,12.10
2018-09-19T09:19:56.079Z,11.60
2018-09-19T09:22:28.438Z,14.13
2018-09-19T09:25:00.706Z,12.73
2018-09-19T09:27:33.295Z,14.50
2018-09-19T09:30:05.540Z,14.37
2018-09-19T09:32:37.748Z,13.27
2018-09-19T09:35:10.459Z,13.50
2018-09-19T09:37:42.585Z,12.47
2018-09-19T09:40:15.527Z,12.50
2018-09-19T09:42:48.033Z,12.30
2018-09-19T09:45:20.212Z,12.67
2018-09-19T09:47:52.266Z,12.53
2018-09-19T09:50:24.690Z,12.80
2018-09-19T09:52:57.721Z,11.60
2018-09-19T09:55:29.899Z,12.60
2018-09-19T09:58:02.255Z,12.57
2018-09-19T10:00:38.829Z,12.43
2018-09-19T10:03:11.927Z,12.57
2018-09-19T10:05:44.088Z,13.73
2018-09-19T10:08:16.277Z,13.50
2018-09-19T10:10:48.515Z,13.47
2018-09-19T10:13:21.495Z,14.20
2018-09-19T10:15:53.792Z,14.60
2018-09-19T10:18:25.861Z,14.93
2018-09-19T10:20:58.482Z,13.93
2018-09-19T10:23:30.616Z,13.77
2018-09-19T10:26:02.999Z,14.63
2018-09-19T10:28:35.478Z,14.97
2018-09-19T10:31:08.164Z,15.67
2018-09-19T10:33:41.325Z,15.73
2018-09-19T10:36:14.294Z,15.17
2018-09-19T10:38:47.048Z,14.33
2018-09-19T10:41:19.458Z,15.73
2018-09-19T10:43:51.984Z,16.80
2018-09-19T10:46:24.459Z,15.00
2018-09-19T10:48:56.800Z,13.83
2018-09-19T10:51:29.038Z,13.60
2018-09-19T10:54:01.231Z,13.30
2018-09-19T10:56:33.305Z,13.80
2018-09-19T10:59:05.760Z,14.07
2018-09-19T11:01:38.888Z,14.30
2018-09-19T11:04:12.020Z,15.07
2018-09-19T11:06:45.043Z,15.27
2018-09-19T11:09:17.336Z,14.77
2018-09-19T11:12:20.661Z,14.00
2018-09-19T11:14:53.289Z,15.03
2018-09-19T11:17:25.723Z,15.10
2018-09-19T11:19:58.469Z,14.53
2018-09-19T11:22:35.856Z,14.70
2018-09-19T11:25:09.672Z,14.43
2018-09-19T11:27:43.473Z,13.93
2018-09-19T11:30:16.020Z,13.90
2018-09-19T11:32:49.109Z,13.43
2018-09-19T11:35:21.860Z,13.20
2018-09-19T11:38:24.889Z,14.40
2018-09-19T11:40:57.962Z,13.60
2018-09-19T11:43:30.655Z,30.57
2018-09-19T11:46:04.902Z,21.63
2018-09-19T11:48:37.479Z,20.23
2018-09-19T11:51:10.227Z,18.50
2018-09-19T11:53:42.524Z,17.13
2018-09-19T11:56:16.491Z,30.77
2018-09-19T11:58:49.689Z,19.97
2018-09-19T12:01:21.752Z,20.50
2018-09-19T12:03:54.446Z,20.60
2018-09-19T12:06:27.436Z,27.70
2018-09-19T12:08:59.665Z,24.23
2018-09-19T12:11:31.797Z,22.77
2018-09-19T12:17:26.644Z,23.10
2018-09-19T12:20:01.552Z,23.40
2018-09-19T12:22:39.937Z,22.67
2018-09-19T12:28:35.238Z,20.47
2018-09-19T12:31:08.312Z,21.77
2018-09-19T12:33:44.948Z,21.70
2018-09-19T12:36:18.537Z,19.93
2018-09-19T12:38:50.840Z,21.23
2018-09-19T12:41:23.456Z,21.80
2018-09-19T12:43:55.950Z,22.07
2018-09-19T12:46:28.570Z,25.77
2018-09-19T12:49:02.121Z,23.93
2018-09-19T12:51:34.820Z,25.03
2018-09-19T12:54:07.592Z,27.87
2018-09-19T12:56:40.903Z,24.30
2018-09-19T12:59:13.364Z,22.43
2018-09-19T13:01:46.476Z,18.33
2018-09-19T13:04:18.914Z,18.00
2018-09-19T13:09:41.890Z,14.03
2018-09-19T13:12:14.551Z,13.60
2018-09-19T13:14:47.292Z,11.93
2018-09-19T13:17:20.001Z,13.03
2018-09-19T13:19:52.552Z,11.90
2018-09-19T13:22:25.082Z,12.20
2018-09-19T13:24:58.929Z,13.10
2018-09-19T13:27:31.263Z,14.57
2018-09-19T13:33:36.133Z,12.87
2018-09-19T13:36:09.578Z,9.87
2018-09-19T13:38:42.824Z,10.33
2018-09-19T13:41:31.038Z,10.60
2018-09-19T13:44:04.869Z,9.63
2018-09-19T13:46:38.437Z,8.90
2018-09-19T13:49:17.833Z,9.30
2018-09-19T13:51:52.256Z,8.43
2018-09-19T13:54:26.160Z,7.83
2018-09-19T13:57:00.705Z,6.83
2018-09-19T14:06:25.532Z,6.55
2018-09-19T14:08:58.967Z,6.80
2018-09-19T14:11:33.605Z,6.70
2018-09-19T14:14:06.639Z,7.35
2018-09-19T14:16:39.655Z,5.95
2018-09-19T14:19:13.038Z,6.47
2018-09-19T14:21:49.135Z,6.22
2018-09-19T14:24:21.949Z,8.55
2018-09-19T14:26:54.816Z,8.28
2018-09-19T14:29:27.833Z,5.60
2018-09-19T14:32:01.353Z,5.00
2018-09-19T14:34:38.696Z,8.65
2018-09-19T14:37:12.150Z,6.85
2018-09-19T14:39:45.003Z,5.15
2018-09-19T14:42:17.877Z,5.53
2018-09-19T14:44:50.937Z,4.47
2018-09-19T14:47:23.934Z,5.35
2018-09-19T14:49:58.216Z,4.90
2018-09-19T14:52:31.156Z,4.35
2018-09-19T14:55:04.059Z,4.20
2018-09-19T14:57:41.373Z,3.67
2018-09-19T15:00:14.710Z,3.83
2018-09-19T15:02:51.307Z,4.62
2018-09-19T15:06:01.156Z,4.15
2018-09-19T15:08:35.909Z,5.40
2018-09-19T15:11:12.088Z,5.30
2018-09-19T15:13:47.045Z,3.62
2018-09-19T15:16:24.301Z,4.53
2018-09-19T15:22:31.053Z,4.92
2018-09-19T15:25:15.359Z,4.50
2018-09-19T15:27:53.336Z,4.80
2018-09-19T15:30:29.647Z,4.53
2018-09-19T15:33:09.467Z,4.55
2018-09-19T15:35:44.980Z,4.30
2018-09-19T15:38:21.367Z,4.35
2018-09-19T15:40:57.948Z,4.20
2018-09-19T15:43:38.365Z,4.67
2018-09-19T15:46:22.087Z,4.37
2018-09-19T15:49:06.457Z,4.42
2018-09-19T15:51:50.012Z,5.90
2018-09-19T15:57:55.666Z,3.65
2018-09-19T16:00:34.922Z,6.28
2018-09-19T16:03:09.609Z,6.60
2018-09-19T16:05:43.551Z,5.90
2018-09-19T16:08:19.990Z,4.70
2018-09-19T16:10:56.163Z,4.40
2018-09-19T16:13:31.319Z,4.50
2018-09-19T16:16:05.931Z,6.03
2018-09-19T16:18:39.190Z,6.47
2018-09-19T16:21:12.705Z,6.25
2018-09-19T16:23:47.528Z,4.85
2018-09-19T16:26:26.899Z,4.12
2018-09-19T16:29:02.478Z,4.50
2018-09-19T16:31:36.405Z,4.60
2018-09-19T16:34:09.805Z,3.60
2018-09-19T16:36:43.837Z,3.77
2018-09-19T16:39:17.470Z,4.00
2018-09-19T16:45:14.098Z,4.25
2018-09-19T16:48:23.907Z,4.05
2018-09-19T16:51:44.076Z,5.20
2018-09-19T16:54:17.547Z,4.70
2018-09-19T16:56:51.256Z,4.97
2018-09-19T16:59:25.826Z,9.23
2018-09-19T17:02:00.201Z,4.70
2018-09-19T17:04:33.336Z,4.60
2018-09-19T17:07:06.301Z,4.50
2018-09-19T17:09:39.419Z,4.62
2018-09-19T17:12:12.690Z,4.37
2018-09-19T17:14:45.684Z,4.95
2018-09-19T17:17:24.167Z,3.33
2018-09-19T17:19:57.463Z,5.05
2018-09-19T17:22:30.154Z,6.58
2018-09-19T17:25:04.123Z,5.00
2018-09-19T17:27:37.047Z,5.60
2018-09-19T17:30:10.352Z,4.53
2018-09-19T17:32:43.236Z,4.10
2018-09-19T17:35:17.051Z,3.70
2018-09-19T17:37:51.841Z,4.58
2018-09-19T17:40:24.557Z,6.10
2018-09-19T17:42:57.522Z,4.00
2018-09-19T17:45:30.867Z,5.20
2018-09-19T17:48:03.870Z,4.28
2018-09-19T17:50:39.466Z,3.92
2018-09-19T17:53:12.417Z,4.08
2018-09-19T17:55:47.814Z,4.78
2018-09-19T17:58:22.499Z,4.53
2018-09-19T18:00:58.109Z,4.03
2018-09-19T18:03:31.864Z,4.42
2018-09-19T18:06:06.024Z,5.25
2018-09-19T18:08:39.091Z,4.50
2018-09-19T18:11:12.027Z,4.42
2018-09-19T18:13:45.021Z,3.60
2018-09-19T18:16:19.183Z,3.92
2018-09-19T18:18:52.635Z,3.77
2018-09-19T18:24:46.893Z,3.37
2018-09-19T18:27:20.130Z,2.67
2018-09-19T18:29:53.855Z,3.35
2018-09-19T18:32:27.711Z,3.30
2018-09-19T18:38:32.355Z,2.67
2018-09-19T18:41:07.585Z,4.37
2018-09-19T18:43:41.500Z,4.45
2018-09-19T18:46:16.001Z,4.67
2018-09-19T18:52:15.780Z,4.60
2018-09-19T18:58:20.721Z,4.30
2018-09-19T19:00:52.811Z,8.23
2018-09-19T19:03:25.660Z,4.22
2018-09-19T19:09:21.529Z,3.90
2018-09-19T19:11:55.943Z,3.98
2018-09-19T19:14:30.917Z,4.40
2018-09-19T19:17:05.855Z,4.03
2018-09-19T19:19:39.526Z,4.25
2018-09-19T19:22:12.660Z,5.97
2018-09-19T19:24:46.213Z,3.92
2018-09-19T19:27:19.463Z,4.53
2018-09-19T19:29:52.672Z,4.08
2018-09-19T19:32:27.557Z,3.92
2018-09-19T19:35:08.543Z,4.10
2018-09-19T19:37:42.020Z,3.35
2018-09-19T19:40:15.779Z,4.28
2018-09-19T19:42:52.342Z,4.17
2018-09-19T19:45:25.452Z,5.33
2018-09-19T19:47:58.495Z,4.22
2018-09-19T19:50:34.122Z,6.53
2018-09-19T19:53:07.114Z,4.47
2018-09-19T19:55:40.215Z,20.17
2018-09-19T19:58:13.782Z,5.53
2018-09-19T20:00:47.519Z,3.72
2018-09-19T20:03:20.727Z,6.33
2018-09-19T20:05:53.885Z,4.42
2018-09-19T20:08:26.927Z,4.90
2018-09-19T20:11:00.439Z,4.60
2018-09-19T20:13:33.600Z,4.22
2018-09-19T20:16:07.128Z,3.70
2018-09-19T20:18:40.382Z,4.72
2018-09-19T20:21:13.615Z,5.03
2018-09-19T20:23:47.411Z,3.80
2018-09-19T20:26:20.602Z,3.87
2018-09-19T20:28:53.784Z,3.58
2018-09-19T20:31:26.894Z,6.85
2018-09-19T20:34:00.471Z,3.27
2018-09-19T20:36:33.464Z,3.15
2018-09-19T20:39:06.838Z,4.45
2018-09-19T20:41:39.676Z,3.40
2018-09-19T20:44:13.903Z,3.67
2018-09-19T20:46:47.814Z,3.90
2018-09-19T20:49:21.049Z,4.10
2018-09-19T20:51:55.739Z,5.37
2018-09-19T20:54:33.607Z,17.73
2018-09-19T20:57:07.372Z,8.33
2018-09-19T20:59:40.577Z,4.40
2018-09-19T21:02:13.807Z,4.70
2018-09-19T21:04:52.553Z,5.15
2018-09-19T21:07:25.838Z,4.20
2018-09-19T21:09:58.734Z,4.50
2018-09-19T21:12:32.300Z,4.30
2018-09-19T21:15:07.412Z,5.53
2018-09-19T21:17:40.803Z,4.65
2018-09-19T21:20:14.562Z,5.95
2018-09-19T21:26:18.610Z,9.17
2018-09-19T21:28:51.473Z,9.17
2018-09-19T21:31:24.265Z,11.27
2018-09-19T21:33:56.700Z,9.50
2018-09-19T21:36:31.536Z,7.73
2018-09-19T21:39:04.952Z,8.80
2018-09-19T21:41:38.148Z,11.07
2018-09-19T21:44:10.692Z,11.03
2018-09-19T21:47:09.803Z,7.27
2018-09-19T21:49:42.901Z,13.43
2018-09-19T21:52:16.038Z,11.87
2018-09-19T21:54:49.156Z,9.73
2018-09-19T21:57:22.487Z,10.67
2018-09-19T21:59:55.607Z,11.43
2018-09-19T22:02:30.107Z,11.10
2018-09-19T22:05:03.213Z,9.17
2018-09-19T22:07:37.705Z,7.53
2018-09-19T22:10:19.437Z,7.73
2018-09-19T22:12:55.803Z,11.10
2018-09-19T22:15:30.498Z,9.70
2018-09-19T22:18:03.595Z,9.40
2018-09-19T22:20:37.778Z,9.97
2018-09-19T22:23:10.852Z,14.80
2018-09-19T22:25:44.668Z,10.03
2018-09-19T22:28:18.008Z,9.50
2018-09-19T22:30:53.219Z,10.00
2018-09-19T22:33:26.312Z,9.05
2018-09-19T22:35:59.879Z,5.73
2018-09-19T22:38:33.085Z,8.50
2018-09-19T22:41:06.473Z,7.20
2018-09-19T22:43:39.929Z,11.47
2018-09-19T22:46:13.512Z,10.50
2018-09-19T22:48:46.950Z,8.60
2018-09-19T22:51:22.998Z,8.57
2018-09-19T22:53:56.533Z,10.73
2018-09-19T22:56:29.539Z,15.83
2018-09-19T23:02:33.549Z,13.40
2018-09-19T23:05:51.900Z,12.50
2018-09-19T23:08:25.737Z,22.07
2018-09-19T23:10:59.364Z,18.60
2018-09-19T23:13:34.813Z,17.30
2018-09-19T23:16:08.280Z,16.40
2018-09-19T23:18:41.743Z,13.63
2018-09-19T23:21:16.143Z,14.47
2018-09-19T23:23:49.740Z,12.43
2018-09-19T23:26:23.616Z,12.87
2018-09-19T23:28:58.656Z,14.03
2018-09-19T23:31:34.903Z,14.73
2018-09-19T23:34:09.872Z,12.40
2018-09-19T23:43:40.729Z,13.67
2018-09-19T23:46:16.096Z,15.03
2018-09-19T23:48:49.489Z,12.57
2018-09-19T23:51:22.046Z,12.47
2018-09-19T23:53:54.498Z,12.67
2018-09-19T23:56:26.882Z,13.10
2018-09-19T23:59:01.395Z,16.23
